sensor_id;sensor_type;location;lat;lon;timestamp;P1;durP1;ratioP1;P2;durP2;ratioP2
33836;SDS011;20140;49.356;8.812;2023-03-01T00:00:54;13.85;;;11.13;;
33836;SDS011;20140;49.356;8.812;2023-03-01T00:03:25;14.68;;;9.45;;
33836;SDS011;20140;49.356;8.812;2023-03-01T00:05:50;13.43;;;10.63;;
33836;SDS011;20140;49.356;8.812;2023-03-01T00:08:16;13.00;;;10.45;;
33836;SDS011;20140;49.356;8.812;2023-03-01T00:10:41;14.25;;;9.35;;
33836;SDS011;20140;49.356;8.812;2023-03-01T00:13:07;14.50;;;10.65;;
33836;SDS011;20140;49.356;8.812;2023-03-01T00:15:32;15.18;;;9.63;;
33836;SDS011;20140;49.356;8.812;2023-03-01T00:18:00;15.50;;;10.73;;
33836;SDS011;20140;49.356;8.812;2023-03-01T00:20:27;17.00;;;10.57;;
33836;SDS011;20140;49.356;8.812;2023-03-01T00:22:52;13.53;;;10.07;;
33836;SDS011;20140;49.356;8.812;2023-03-01T00:25:18;17.80;;;10.53;;
33836;SDS011;20140;49.356;8.812;2023-03-01T00:27:43;14.30;;;9.40;;
33836;SDS011;20140;49.356;8.812;2023-03-01T00:30:09;16.03;;;10.67;;
33836;SDS011;20140;49.356;8.812;2023-03-01T00:32:35;12.40;;;9.45;;
33836;SDS011;20140;49.356;8.812;2023-03-01T00:35:00;12.63;;;8.93;;
33836;SDS011;20140;49.356;8.812;2023-03-01T00:37:26;14.57;;;9.83;;
33836;SDS011;20140;49.356;8.812;2023-03-01T00:39:51;16.40;;;10.73;;
33836;SDS011;20140;49.356;8.812;2023-03-01T00:42:17;15.83;;;10.23;;
33836;SDS011;20140;49.356;8.812;2023-03-01T00:44:42;18.27;;;10.77;;
33836;SDS011;20140;49.356;8.812;2023-03-01T00:47:08;17.40;;;9.20;;
33836;SDS011;20140;49.356;8.812;2023-03-01T00:49:34;14.20;;;10.13;;
33836;SDS011;20140;49.356;8.812;2023-03-01T00:52:00;14.70;;;10.02;;
33836;SDS011;20140;49.356;8.812;2023-03-01T00:54:25;17.17;;;10.45;;
33836;SDS011;20140;49.356;8.812;2023-03-01T00:56:51;13.63;;;10.32;;
33836;SDS011;20140;49.356;8.812;2023-03-01T00:59:16;19.40;;;10.55;;
33836;SDS011;20140;49.356;8.812;2023-03-01T01:01:42;19.17;;;11.27;;
33836;SDS011;20140;49.356;8.812;2023-03-01T01:04:08;15.70;;;10.65;;
33836;SDS011;20140;49.356;8.812;2023-03-01T01:06:37;14.77;;;10.95;;
33836;SDS011;20140;49.356;8.812;2023-03-01T01:09:08;15.30;;;11.27;;
33836;SDS011;20140;49.356;8.812;2023-03-01T01:11:42;18.73;;;11.25;;
33836;SDS011;20140;49.356;8.812;2023-03-01T01:14:08;15.93;;;11.43;;
33836;SDS011;20140;49.356;8.812;2023-03-01T01:16:34;16.35;;;11.05;;
33836;SDS011;20140;49.356;8.812;2023-03-01T01:19:00;16.47;;;9.87;;
33836;SDS011;20140;49.356;8.812;2023-03-01T01:21:26;15.70;;;10.87;;
33836;SDS011;20140;49.356;8.812;2023-03-01T01:23:52;15.60;;;11.02;;
33836;SDS011;20140;49.356;8.812;2023-03-01T01:26:28;15.03;;;11.07;;
33836;SDS011;20140;49.356;8.812;2023-03-01T01:28:55;18.27;;;10.63;;
33836;SDS011;20140;49.356;8.812;2023-03-01T01:31:22;15.95;;;11.60;;
33836;SDS011;20140;49.356;8.812;2023-03-01T01:33:48;19.98;;;12.13;;
33836;SDS011;20140;49.356;8.812;2023-03-01T01:36:15;16.33;;;11.03;;
33836;SDS011;20140;49.356;8.812;2023-03-01T01:38:41;16.20;;;11.35;;
33836;SDS011;20140;49.356;8.812;2023-03-01T01:41:07;17.17;;;11.20;;
33836;SDS011;20140;49.356;8.812;2023-03-01T01:43:37;18.55;;;11.95;;
33836;SDS011;20140;49.356;8.812;2023-03-01T01:49:06;14.57;;;10.93;;
33836;SDS011;20140;49.356;8.812;2023-03-01T01:51:39;17.15;;;12.10;;
33836;SDS011;20140;49.356;8.812;2023-03-01T01:54:10;17.13;;;11.55;;
33836;SDS011;20140;49.356;8.812;2023-03-01T01:56:40;16.95;;;11.75;;
33836;SDS011;20140;49.356;8.812;2023-03-01T01:59:09;16.60;;;11.75;;
33836;SDS011;20140;49.356;8.812;2023-03-01T02:01:36;16.10;;;10.82;;
33836;SDS011;20140;49.356;8.812;2023-03-01T02:04:01;17.90;;;11.60;;
33836;SDS011;20140;49.356;8.812;2023-03-01T02:06:29;15.05;;;10.85;;
33836;SDS011;20140;49.356;8.812;2023-03-01T02:08:59;17.40;;;11.43;;
33836;SDS011;20140;49.356;8.812;2023-03-01T02:11:29;17.75;;;12.77;;
33836;SDS011;20140;49.356;8.812;2023-03-01T02:13:56;16.80;;;10.98;;
33836;SDS011;20140;49.356;8.812;2023-03-01T02:16:21;17.67;;;11.97;;
33836;SDS011;20140;49.356;8.812;2023-03-01T02:18:47;19.03;;;12.33;;
33836;SDS011;20140;49.356;8.812;2023-03-01T02:21:36;17.30;;;12.52;;
33836;SDS011;20140;49.356;8.812;2023-03-01T02:26:47;17.60;;;12.68;;
33836;SDS011;20140;49.356;8.812;2023-03-01T02:29:16;15.82;;;12.45;;
33836;SDS011;20140;49.356;8.812;2023-03-01T02:31:41;17.27;;;12.63;;
33836;SDS011;20140;49.356;8.812;2023-03-01T02:34:08;20.97;;;12.00;;
33836;SDS011;20140;49.356;8.812;2023-03-01T02:36:39;24.25;;;13.52;;
33836;SDS011;20140;49.356;8.812;2023-03-01T02:39:10;19.15;;;12.80;;
33836;SDS011;20140;49.356;8.812;2023-03-01T02:41:51;18.40;;;12.68;;
33836;SDS011;20140;49.356;8.812;2023-03-01T02:44:19;21.77;;;13.88;;
33836;SDS011;20140;49.356;8.812;2023-03-01T02:46:47;19.60;;;12.98;;
33836;SDS011;20140;49.356;8.812;2023-03-01T02:49:27;17.55;;;12.85;;
33836;SDS011;20140;49.356;8.812;2023-03-01T02:55:15;18.35;;;12.43;;
33836;SDS011;20140;49.356;8.812;2023-03-01T02:57:42;19.08;;;12.43;;
33836;SDS011;20140;49.356;8.812;2023-03-01T03:00:14;18.00;;;12.20;;
33836;SDS011;20140;49.356;8.812;2023-03-01T03:02:47;18.80;;;12.50;;
33836;SDS011;20140;49.356;8.812;2023-03-01T03:05:17;16.87;;;11.33;;
33836;SDS011;20140;49.356;8.812;2023-03-01T03:07:45;21.40;;;13.02;;
33836;SDS011;20140;49.356;8.812;2023-03-01T03:10:14;18.40;;;11.70;;
33836;SDS011;20140;49.356;8.812;2023-03-01T03:12:57;18.65;;;12.45;;
33836;SDS011;20140;49.356;8.812;2023-03-01T03:15:28;17.88;;;12.55;;
33836;SDS011;20140;49.356;8.812;2023-03-01T03:17:54;16.83;;;12.10;;
33836;SDS011;20140;49.356;8.812;2023-03-01T03:20:22;18.85;;;13.02;;
33836;SDS011;20140;49.356;8.812;2023-03-01T03:22:51;18.80;;;12.70;;
33836;SDS011;20140;49.356;8.812;2023-03-01T03:25:18;21.60;;;13.13;;
33836;SDS011;20140;49.356;8.812;2023-03-01T03:27:45;20.50;;;13.48;;
33836;SDS011;20140;49.356;8.812;2023-03-01T03:30:13;19.13;;;12.75;;
33836;SDS011;20140;49.356;8.812;2023-03-01T03:32:41;22.70;;;12.75;;
33836;SDS011;20140;49.356;8.812;2023-03-01T03:35:18;21.60;;;14.27;;
33836;SDS011;20140;49.356;8.812;2023-03-01T03:37:45;20.80;;;13.00;;
33836;SDS011;20140;49.356;8.812;2023-03-01T03:40:27;18.33;;;13.60;;
33836;SDS011;20140;49.356;8.812;2023-03-01T03:43:07;19.83;;;12.50;;
33836;SDS011;20140;49.356;8.812;2023-03-01T03:45:34;19.35;;;12.75;;
33836;SDS011;20140;49.356;8.812;2023-03-01T03:48:00;21.70;;;13.73;;
33836;SDS011;20140;49.356;8.812;2023-03-01T03:50:26;20.20;;;12.82;;
33836;SDS011;20140;49.356;8.812;2023-03-01T03:52:52;19.80;;;12.98;;
33836;SDS011;20140;49.356;8.812;2023-03-01T03:55:17;18.70;;;12.33;;
33836;SDS011;20140;49.356;8.812;2023-03-01T03:57:44;19.30;;;12.95;;
33836;SDS011;20140;49.356;8.812;2023-03-01T04:00:16;22.30;;;13.60;;
33836;SDS011;20140;49.356;8.812;2023-03-01T04:02:43;18.93;;;13.03;;
33836;SDS011;20140;49.356;8.812;2023-03-01T04:05:10;20.33;;;13.07;;
33836;SDS011;20140;49.356;8.812;2023-03-01T04:07:37;17.63;;;12.65;;
33836;SDS011;20140;49.356;8.812;2023-03-01T04:10:04;22.13;;;13.68;;
33836;SDS011;20140;49.356;8.812;2023-03-01T04:12:31;19.13;;;14.13;;
33836;SDS011;20140;49.356;8.812;2023-03-01T04:14:59;20.40;;;13.40;;
33836;SDS011;20140;49.356;8.812;2023-03-01T04:17:25;21.45;;;14.05;;
33836;SDS011;20140;49.356;8.812;2023-03-01T04:19:50;20.10;;;12.73;;
33836;SDS011;20140;49.356;8.812;2023-03-01T04:22:16;19.70;;;13.23;;
33836;SDS011;20140;49.356;8.812;2023-03-01T04:24:43;18.40;;;13.30;;
33836;SDS011;20140;49.356;8.812;2023-03-01T04:27:09;19.88;;;14.20;;
33836;SDS011;20140;49.356;8.812;2023-03-01T04:29:34;18.88;;;13.30;;
33836;SDS011;20140;49.356;8.812;2023-03-01T04:32:00;17.87;;;12.63;;
33836;SDS011;20140;49.356;8.812;2023-03-01T04:34:25;18.87;;;13.13;;
33836;SDS011;20140;49.356;8.812;2023-03-01T04:36:51;19.13;;;13.60;;
33836;SDS011;20140;49.356;8.812;2023-03-01T04:39:17;20.70;;;13.43;;
33836;SDS011;20140;49.356;8.812;2023-03-01T04:41:43;20.70;;;13.52;;
33836;SDS011;20140;49.356;8.812;2023-03-01T04:44:08;19.00;;;13.53;;
33836;SDS011;20140;49.356;8.812;2023-03-01T04:46:34;20.60;;;13.90;;
33836;SDS011;20140;49.356;8.812;2023-03-01T04:49:00;23.08;;;14.70;;
33836;SDS011;20140;49.356;8.812;2023-03-01T04:51:26;22.42;;;15.98;;
33836;SDS011;20140;49.356;8.812;2023-03-01T04:53:51;19.60;;;13.20;;
33836;SDS011;20140;49.356;8.812;2023-03-01T04:56:17;19.37;;;13.33;;
33836;SDS011;20140;49.356;8.812;2023-03-01T04:58:43;22.73;;;13.77;;
33836;SDS011;20140;49.356;8.812;2023-03-01T05:01:13;26.73;;;14.68;;
33836;SDS011;20140;49.356;8.812;2023-03-01T05:03:45;23.33;;;14.00;;
33836;SDS011;20140;49.356;8.812;2023-03-01T05:06:12;22.02;;;14.88;;
33836;SDS011;20140;49.356;8.812;2023-03-01T05:08:38;23.30;;;14.55;;
33836;SDS011;20140;49.356;8.812;2023-03-01T05:11:05;23.25;;;14.25;;
33836;SDS011;20140;49.356;8.812;2023-03-01T05:13:33;23.27;;;15.13;;
33836;SDS011;20140;49.356;8.812;2023-03-01T05:16:00;21.35;;;13.93;;
33836;SDS011;20140;49.356;8.812;2023-03-01T05:18:26;22.20;;;15.27;;
33836;SDS011;20140;49.356;8.812;2023-03-01T05:20:54;24.33;;;15.27;;
33836;SDS011;20140;49.356;8.812;2023-03-01T05:23:23;23.63;;;14.30;;
33836;SDS011;20140;49.356;8.812;2023-03-01T05:25:49;19.80;;;13.30;;
33836;SDS011;20140;49.356;8.812;2023-03-01T05:28:17;20.70;;;13.68;;
33836;SDS011;20140;49.356;8.812;2023-03-01T05:30:43;24.77;;;15.95;;
33836;SDS011;20140;49.356;8.812;2023-03-01T05:33:09;23.02;;;15.00;;
33836;SDS011;20140;49.356;8.812;2023-03-01T05:35:38;25.10;;;16.48;;
33836;SDS011;20140;49.356;8.812;2023-03-01T05:38:05;23.45;;;15.30;;
33836;SDS011;20140;49.356;8.812;2023-03-01T05:40:32;23.53;;;15.43;;
33836;SDS011;20140;49.356;8.812;2023-03-01T05:42:58;21.52;;;15.27;;
33836;SDS011;20140;49.356;8.812;2023-03-01T05:45:24;22.50;;;14.67;;
33836;SDS011;20140;49.356;8.812;2023-03-01T05:47:51;25.85;;;15.30;;
33836;SDS011;20140;49.356;8.812;2023-03-01T05:50:21;28.83;;;18.02;;
33836;SDS011;20140;49.356;8.812;2023-03-01T05:52:48;21.48;;;14.55;;
33836;SDS011;20140;49.356;8.812;2023-03-01T05:55:19;23.92;;;14.85;;
33836;SDS011;20140;49.356;8.812;2023-03-01T05:57:46;23.65;;;15.40;;
33836;SDS011;20140;49.356;8.812;2023-03-01T06:00:12;20.50;;;14.00;;
33836;SDS011;20140;49.356;8.812;2023-03-01T06:02:39;24.63;;;16.30;;
33836;SDS011;20140;49.356;8.812;2023-03-01T06:05:06;23.15;;;16.38;;
33836;SDS011;20140;49.356;8.812;2023-03-01T06:07:33;22.27;;;15.18;;
33836;SDS011;20140;49.356;8.812;2023-03-01T06:09:59;22.63;;;14.05;;
33836;SDS011;20140;49.356;8.812;2023-03-01T06:12:25;25.47;;;15.60;;
33836;SDS011;20140;49.356;8.812;2023-03-01T06:14:51;21.37;;;15.90;;
33836;SDS011;20140;49.356;8.812;2023-03-01T06:17:16;22.63;;;14.87;;
33836;SDS011;20140;49.356;8.812;2023-03-01T06:19:42;22.23;;;15.33;;
33836;SDS011;20140;49.356;8.812;2023-03-01T06:22:07;23.97;;;15.70;;
33836;SDS011;20140;49.356;8.812;2023-03-01T06:24:33;22.52;;;14.77;;
33836;SDS011;20140;49.356;8.812;2023-03-01T06:26:59;22.02;;;15.43;;
33836;SDS011;20140;49.356;8.812;2023-03-01T06:29:24;22.80;;;15.47;;
33836;SDS011;20140;49.356;8.812;2023-03-01T06:31:50;25.60;;;16.23;;
33836;SDS011;20140;49.356;8.812;2023-03-01T06:34:15;22.47;;;15.63;;
33836;SDS011;20140;49.356;8.812;2023-03-01T06:36:41;26.50;;;16.17;;
33836;SDS011;20140;49.356;8.812;2023-03-01T06:39:07;25.27;;;14.57;;
33836;SDS011;20140;49.356;8.812;2023-03-01T06:41:32;23.67;;;15.10;;
33836;SDS011;20140;49.356;8.812;2023-03-01T06:43:58;25.95;;;15.10;;
33836;SDS011;20140;49.356;8.812;2023-03-01T06:46:24;26.60;;;16.87;;
33836;SDS011;20140;49.356;8.812;2023-03-01T06:48:50;24.83;;;16.00;;
33836;SDS011;20140;49.356;8.812;2023-03-01T06:51:15;24.03;;;16.13;;
33836;SDS011;20140;49.356;8.812;2023-03-01T06:53:41;23.43;;;14.97;;
33836;SDS011;20140;49.356;8.812;2023-03-01T06:56:06;23.33;;;16.00;;
33836;SDS011;20140;49.356;8.812;2023-03-01T06:58:32;26.60;;;15.63;;
33836;SDS011;20140;49.356;8.812;2023-03-01T07:00:57;26.80;;;17.37;;
33836;SDS011;20140;49.356;8.812;2023-03-01T07:03:23;23.67;;;15.47;;
33836;SDS011;20140;49.356;8.812;2023-03-01T07:05:49;24.33;;;15.77;;
33836;SDS011;20140;49.356;8.812;2023-03-01T07:08:16;24.63;;;16.00;;
33836;SDS011;20140;49.356;8.812;2023-03-01T07:10:42;22.08;;;15.32;;
33836;SDS011;20140;49.356;8.812;2023-03-01T07:13:07;25.00;;;15.63;;
33836;SDS011;20140;49.356;8.812;2023-03-01T07:15:33;24.70;;;15.90;;
33836;SDS011;20140;49.356;8.812;2023-03-01T07:17:58;22.67;;;15.10;;
33836;SDS011;20140;49.356;8.812;2023-03-01T07:20:24;20.08;;;14.52;;
33836;SDS011;20140;49.356;8.812;2023-03-01T07:22:51;26.80;;;15.30;;
33836;SDS011;20140;49.356;8.812;2023-03-01T07:25:17;23.45;;;15.50;;
33836;SDS011;20140;49.356;8.812;2023-03-01T07:27:43;25.33;;;15.63;;
33836;SDS011;20140;49.356;8.812;2023-03-01T07:30:08;21.47;;;14.63;;
33836;SDS011;20140;49.356;8.812;2023-03-01T07:32:35;22.73;;;14.65;;
33836;SDS011;20140;49.356;8.812;2023-03-01T07:35:00;24.33;;;14.50;;
33836;SDS011;20140;49.356;8.812;2023-03-01T07:37:26;24.13;;;15.60;;
33836;SDS011;20140;49.356;8.812;2023-03-01T07:39:52;23.43;;;15.57;;
33836;SDS011;20140;49.356;8.812;2023-03-01T07:42:17;23.17;;;15.33;;
33836;SDS011;20140;49.356;8.812;2023-03-01T07:44:43;23.23;;;15.10;;
33836;SDS011;20140;49.356;8.812;2023-03-01T07:47:08;30.50;;;14.70;;
33836;SDS011;20140;49.356;8.812;2023-03-01T07:49:34;21.37;;;14.03;;
33836;SDS011;20140;49.356;8.812;2023-03-01T07:51:59;21.77;;;14.25;;
33836;SDS011;20140;49.356;8.812;2023-03-01T07:54:25;24.92;;;17.13;;
33836;SDS011;20140;49.356;8.812;2023-03-01T07:56:51;19.95;;;15.55;;
33836;SDS011;20140;49.356;8.812;2023-03-01T07:59:16;21.43;;;14.70;;
33836;SDS011;20140;49.356;8.812;2023-03-01T08:01:42;24.17;;;15.37;;
33836;SDS011;20140;49.356;8.812;2023-03-01T08:04:08;23.23;;;15.53;;
33836;SDS011;20140;49.356;8.812;2023-03-01T08:06:34;22.95;;;15.23;;
33836;SDS011;20140;49.356;8.812;2023-03-01T08:09:01;20.38;;;15.00;;
33836;SDS011;20140;49.356;8.812;2023-03-01T08:11:26;23.97;;;15.47;;
33836;SDS011;20140;49.356;8.812;2023-03-01T08:13:53;23.20;;;14.48;;
33836;SDS011;20140;49.356;8.812;2023-03-01T08:16:19;20.55;;;14.27;;
33836;SDS011;20140;49.356;8.812;2023-03-01T08:18:44;22.27;;;14.68;;
33836;SDS011;20140;49.356;8.812;2023-03-01T08:21:12;24.83;;;15.13;;
33836;SDS011;20140;49.356;8.812;2023-03-01T08:23:39;19.00;;;13.90;;
33836;SDS011;20140;49.356;8.812;2023-03-01T08:26:07;23.63;;;14.43;;
33836;SDS011;20140;49.356;8.812;2023-03-01T08:28:35;23.77;;;15.35;;
33836;SDS011;20140;49.356;8.812;2023-03-01T08:31:01;24.90;;;15.47;;
33836;SDS011;20140;49.356;8.812;2023-03-01T08:33:26;20.87;;;14.77;;
33836;SDS011;20140;49.356;8.812;2023-03-01T08:36:04;24.92;;;16.48;;
33836;SDS011;20140;49.356;8.812;2023-03-01T08:38:32;23.60;;;15.32;;
33836;SDS011;20140;49.356;8.812;2023-03-01T08:41:01;25.50;;;16.63;;
33836;SDS011;20140;49.356;8.812;2023-03-01T08:43:28;23.60;;;15.57;;
33836;SDS011;20140;49.356;8.812;2023-03-01T08:45:54;21.03;;;14.77;;
33836;SDS011;20140;49.356;8.812;2023-03-01T08:48:19;24.93;;;16.80;;
33836;SDS011;20140;49.356;8.812;2023-03-01T08:50:45;23.30;;;15.23;;
33836;SDS011;20140;49.356;8.812;2023-03-01T08:53:10;22.53;;;16.07;;
33836;SDS011;20140;49.356;8.812;2023-03-01T08:55:36;28.70;;;15.70;;
33836;SDS011;20140;49.356;8.812;2023-03-01T08:58:01;25.63;;;16.30;;
33836;SDS011;20140;49.356;8.812;2023-03-01T09:00:27;25.07;;;16.43;;
33836;SDS011;20140;49.356;8.812;2023-03-01T09:02:53;22.07;;;14.87;;
33836;SDS011;20140;49.356;8.812;2023-03-01T09:05:18;23.70;;;15.87;;
33836;SDS011;20140;49.356;8.812;2023-03-01T09:07:44;26.77;;;15.63;;
33836;SDS011;20140;49.356;8.812;2023-03-01T09:10:09;22.93;;;15.47;;
33836;SDS011;20140;49.356;8.812;2023-03-01T09:12:35;23.85;;;16.13;;
33836;SDS011;20140;49.356;8.812;2023-03-01T09:15:01;22.88;;;16.38;;
33836;SDS011;20140;49.356;8.812;2023-03-01T09:17:26;20.77;;;15.17;;
33836;SDS011;20140;49.356;8.812;2023-03-01T09:19:52;23.60;;;16.53;;
33836;SDS011;20140;49.356;8.812;2023-03-01T09:22:17;25.30;;;15.67;;
33836;SDS011;20140;49.356;8.812;2023-03-01T09:24:43;21.93;;;15.27;;
33836;SDS011;20140;49.356;8.812;2023-03-01T09:27:08;25.05;;;15.93;;
33836;SDS011;20140;49.356;8.812;2023-03-01T09:29:35;28.35;;;16.27;;
33836;SDS011;20140;49.356;8.812;2023-03-01T09:32:01;23.33;;;15.65;;
33836;SDS011;20140;49.356;8.812;2023-03-01T09:34:27;27.30;;;16.93;;
33836;SDS011;20140;49.356;8.812;2023-03-01T09:36:52;21.43;;;15.00;;
33836;SDS011;20140;49.356;8.812;2023-03-01T09:39:18;23.03;;;16.70;;
33836;SDS011;20140;49.356;8.812;2023-03-01T09:41:49;22.38;;;15.35;;
33836;SDS011;20140;49.356;8.812;2023-03-01T09:47:12;23.58;;;14.90;;
33836;SDS011;20140;49.356;8.812;2023-03-01T09:49:52;20.88;;;15.88;;
33836;SDS011;20140;49.356;8.812;2023-03-01T09:52:43;24.67;;;16.75;;
33836;SDS011;20140;49.356;8.812;2023-03-01T09:55:14;25.80;;;16.35;;
33836;SDS011;20140;49.356;8.812;2023-03-01T10:02:56;21.80;;;14.88;;
33836;SDS011;20140;49.356;8.812;2023-03-01T10:05:39;23.83;;;14.77;;
33836;SDS011;20140;49.356;8.812;2023-03-01T10:08:26;23.52;;;15.43;;
33836;SDS011;20140;49.356;8.812;2023-03-01T10:11:25;25.33;;;15.73;;
33836;SDS011;20140;49.356;8.812;2023-03-01T10:13:59;23.85;;;15.77;;
33836;SDS011;20140;49.356;8.812;2023-03-01T10:19:02;22.13;;;15.30;;
33836;SDS011;20140;49.356;8.812;2023-03-01T10:21:30;21.23;;;14.93;;
33836;SDS011;20140;49.356;8.812;2023-03-01T10:23:56;19.90;;;14.43;;
33836;SDS011;20140;49.356;8.812;2023-03-01T10:29:09;19.75;;;14.27;;
33836;SDS011;20140;49.356;8.812;2023-03-01T10:31:38;21.30;;;15.15;;
33836;SDS011;20140;49.356;8.812;2023-03-01T10:36:41;19.95;;;14.05;;
33836;SDS011;20140;49.356;8.812;2023-03-01T10:39:13;22.90;;;15.32;;
33836;SDS011;20140;49.356;8.812;2023-03-01T10:44:47;22.08;;;15.43;;
33836;SDS011;20140;49.356;8.812;2023-03-01T10:47:15;20.60;;;13.80;;
33836;SDS011;20140;49.356;8.812;2023-03-01T10:49:58;21.23;;;14.52;;
33836;SDS011;20140;49.356;8.812;2023-03-01T10:52:27;20.75;;;13.90;;
33836;SDS011;20140;49.356;8.812;2023-03-01T10:55:50;22.35;;;15.85;;
33836;SDS011;20140;49.356;8.812;2023-03-01T10:58:15;19.50;;;14.10;;
33836;SDS011;20140;49.356;8.812;2023-03-01T11:00:46;19.97;;;14.37;;
33836;SDS011;20140;49.356;8.812;2023-03-01T11:03:15;18.10;;;13.27;;
33836;SDS011;20140;49.356;8.812;2023-03-01T11:08:42;22.08;;;14.45;;
33836;SDS011;20140;49.356;8.812;2023-03-01T11:16:24;17.85;;;13.63;;
33836;SDS011;20140;49.356;8.812;2023-03-01T11:18:59;20.55;;;13.32;;
33836;SDS011;20140;49.356;8.812;2023-03-01T11:21:29;19.15;;;12.68;;
33836;SDS011;20140;49.356;8.812;2023-03-01T11:23:59;17.55;;;13.40;;
33836;SDS011;20140;49.356;8.812;2023-03-01T11:26:26;18.13;;;12.43;;
33836;SDS011;20140;49.356;8.812;2023-03-01T11:28:53;18.13;;;12.77;;
33836;SDS011;20140;49.356;8.812;2023-03-01T11:31:22;16.55;;;12.57;;
33836;SDS011;20140;49.356;8.812;2023-03-01T11:33:50;17.73;;;12.05;;
33836;SDS011;20140;49.356;8.812;2023-03-01T11:36:32;16.00;;;12.40;;
33836;SDS011;20140;49.356;8.812;2023-03-01T11:39:03;16.33;;;12.13;;
33836;SDS011;20140;49.356;8.812;2023-03-01T11:41:41;18.27;;;13.00;;
33836;SDS011;20140;49.356;8.812;2023-03-01T11:44:14;18.05;;;13.23;;
33836;SDS011;20140;49.356;8.812;2023-03-01T11:46:50;18.05;;;11.95;;
33836;SDS011;20140;49.356;8.812;2023-03-01T11:49:40;15.48;;;12.60;;
33836;SDS011;20140;49.356;8.812;2023-03-01T11:55:10;18.30;;;13.23;;
33836;SDS011;20140;49.356;8.812;2023-03-01T12:00:53;19.10;;;15.00;;
33836;SDS011;20140;49.356;8.812;2023-03-01T12:03:28;18.10;;;13.20;;
33836;SDS011;20140;49.356;8.812;2023-03-01T12:06:19;19.35;;;13.00;;
33836;SDS011;20140;49.356;8.812;2023-03-01T12:08:58;17.70;;;12.23;;
33836;SDS011;20140;49.356;8.812;2023-03-01T12:11:49;20.88;;;13.98;;
33836;SDS011;20140;49.356;8.812;2023-03-01T12:17:21;18.23;;;14.93;;
33836;SDS011;20140;49.356;8.812;2023-03-01T12:20:41;18.20;;;13.37;;
33836;SDS011;20140;49.356;8.812;2023-03-01T12:23:08;20.90;;;15.20;;
33836;SDS011;20140;49.356;8.812;2023-03-01T12:28:25;16.38;;;13.00;;
33836;SDS011;20140;49.356;8.812;2023-03-01T12:34:16;16.48;;;13.40;;
33836;SDS011;20140;49.356;8.812;2023-03-01T12:37:21;19.17;;;13.57;;
33836;SDS011;20140;49.356;8.812;2023-03-01T12:40:03;16.50;;;13.60;;
33836;SDS011;20140;49.356;8.812;2023-03-01T12:50:47;15.07;;;11.48;;
33836;SDS011;20140;49.356;8.812;2023-03-01T12:53:26;14.30;;;12.23;;
33836;SDS011;20140;49.356;8.812;2023-03-01T12:55:57;14.40;;;10.83;;
33836;SDS011;20140;49.356;8.812;2023-03-01T12:58:36;17.88;;;12.25;;
33836;SDS011;20140;49.356;8.812;2023-03-01T13:06:55;14.80;;;10.75;;
33836;SDS011;20140;49.356;8.812;2023-03-01T13:10:01;16.17;;;12.20;;
33836;SDS011;20140;49.356;8.812;2023-03-01T13:17:52;15.23;;;11.43;;
33836;SDS011;20140;49.356;8.812;2023-03-01T13:31:07;12.95;;;10.63;;
33836;SDS011;20140;49.356;8.812;2023-03-01T13:33:40;15.73;;;12.23;;
33836;SDS011;20140;49.356;8.812;2023-03-01T13:36:06;15.20;;;10.87;;
33836;SDS011;20140;49.356;8.812;2023-03-01T13:49:41;15.50;;;10.98;;
33836;SDS011;20140;49.356;8.812;2023-03-01T13:52:29;15.93;;;11.10;;
33836;SDS011;20140;49.356;8.812;2023-03-01T14:03:24;14.07;;;11.30;;
33836;SDS011;20140;49.356;8.812;2023-03-01T14:06:01;16.15;;;11.07;;
33836;SDS011;20140;49.356;8.812;2023-03-01T14:08:28;16.70;;;14.95;;
33836;SDS011;20140;49.356;8.812;2023-03-01T14:11:16;15.00;;;11.32;;
33836;SDS011;20140;49.356;8.812;2023-03-01T14:14:16;15.23;;;11.55;;
33836;SDS011;20140;49.356;8.812;2023-03-01T14:17:05;14.47;;;11.40;;
33836;SDS011;20140;49.356;8.812;2023-03-01T14:19:47;15.00;;;11.60;;
33836;SDS011;20140;49.356;8.812;2023-03-01T14:22:23;15.00;;;10.93;;
33836;SDS011;20140;49.356;8.812;2023-03-01T14:24:53;15.82;;;12.25;;
33836;SDS011;20140;49.356;8.812;2023-03-01T14:27:28;15.82;;;11.05;;
33836;SDS011;20140;49.356;8.812;2023-03-01T14:30:10;15.70;;;11.37;;
33836;SDS011;20140;49.356;8.812;2023-03-01T14:32:42;13.70;;;11.30;;
33836;SDS011;20140;49.356;8.812;2023-03-01T14:35:35;13.60;;;11.55;;
33836;SDS011;20140;49.356;8.812;2023-03-01T14:38:01;14.10;;;11.30;;
33836;SDS011;20140;49.356;8.812;2023-03-01T14:40:28;15.52;;;12.82;;
33836;SDS011;20140;49.356;8.812;2023-03-01T14:43:00;13.40;;;11.30;;
33836;SDS011;20140;49.356;8.812;2023-03-01T14:45:32;15.00;;;11.02;;
33836;SDS011;20140;49.356;8.812;2023-03-01T14:47:59;15.55;;;12.20;;
33836;SDS011;20140;49.356;8.812;2023-03-01T14:50:27;12.85;;;11.30;;
33836;SDS011;20140;49.356;8.812;2023-03-01T14:52:56;14.75;;;11.20;;
33836;SDS011;20140;49.356;8.812;2023-03-01T14:55:26;12.60;;;9.98;;
33836;SDS011;20140;49.356;8.812;2023-03-01T14:57:53;14.77;;;11.32;;
33836;SDS011;20140;49.356;8.812;2023-03-01T15:02:49;14.73;;;11.48;;
33836;SDS011;20140;49.356;8.812;2023-03-01T15:05:18;13.88;;;10.85;;
33836;SDS011;20140;49.356;8.812;2023-03-01T15:07:50;13.73;;;11.02;;
33836;SDS011;20140;49.356;8.812;2023-03-01T15:10:19;19.93;;;10.97;;
33836;SDS011;20140;49.356;8.812;2023-03-01T15:12:56;13.70;;;10.13;;
33836;SDS011;20140;49.356;8.812;2023-03-01T15:15:35;17.13;;;11.63;;
33836;SDS011;20140;49.356;8.812;2023-03-01T15:20:45;12.88;;;10.95;;
33836;SDS011;20140;49.356;8.812;2023-03-01T15:23:18;13.55;;;11.15;;
33836;SDS011;20140;49.356;8.812;2023-03-01T15:25:44;13.35;;;10.32;;
33836;SDS011;20140;49.356;8.812;2023-03-01T15:28:18;14.50;;;10.93;;
33836;SDS011;20140;49.356;8.812;2023-03-01T15:30:45;12.95;;;10.32;;
33836;SDS011;20140;49.356;8.812;2023-03-01T15:35:53;14.60;;;11.57;;
33836;SDS011;20140;49.356;8.812;2023-03-01T15:38:24;14.50;;;11.98;;
33836;SDS011;20140;49.356;8.812;2023-03-01T15:41:05;17.25;;;12.20;;
33836;SDS011;20140;49.356;8.812;2023-03-01T15:43:47;15.85;;;10.65;;
33836;SDS011;20140;49.356;8.812;2023-03-01T15:48:58;16.35;;;11.68;;
33836;SDS011;20140;49.356;8.812;2023-03-01T15:51:33;13.13;;;10.75;;
33836;SDS011;20140;49.356;8.812;2023-03-01T15:54:04;15.52;;;10.57;;
33836;SDS011;20140;49.356;8.812;2023-03-01T15:56:32;14.65;;;10.45;;
33836;SDS011;20140;49.356;8.812;2023-03-01T15:58:59;15.60;;;10.50;;
33836;SDS011;20140;49.356;8.812;2023-03-01T16:01:27;16.38;;;11.18;;
33836;SDS011;20140;49.356;8.812;2023-03-01T16:03:53;14.35;;;10.85;;
33836;SDS011;20140;49.356;8.812;2023-03-01T16:06:19;16.27;;;11.13;;
33836;SDS011;20140;49.356;8.812;2023-03-01T16:08:45;12.98;;;10.25;;
33836;SDS011;20140;49.356;8.812;2023-03-01T16:11:13;13.50;;;9.80;;
33836;SDS011;20140;49.356;8.812;2023-03-01T16:13:41;13.00;;;9.70;;
33836;SDS011;20140;49.356;8.812;2023-03-01T16:16:07;16.30;;;10.90;;
33836;SDS011;20140;49.356;8.812;2023-03-01T16:18:37;13.50;;;10.52;;
33836;SDS011;20140;49.356;8.812;2023-03-01T16:21:03;16.10;;;10.50;;
33836;SDS011;20140;49.356;8.812;2023-03-01T16:23:30;15.60;;;10.60;;
33836;SDS011;20140;49.356;8.812;2023-03-01T16:25:58;12.47;;;9.57;;